Norwegian Jewel — C6TX6 — position and weather

sailwx.info

Track history (hours):
 
Tides and Currents Weather Stations Pressure Air Temp Water Temp Dewpoint Dewpoint Depression Visibility Wind Speed Wind Dir Waves Ship Positions

Norwegian Jewel

Last reported at 2018-Aug-16 02:21 UTC. Time now 2018-Aug-18 00:46 UTC.
Position N 58°09' W 135°20'.

Type: Ship. MMSI: 311827000.

Date/timePositionNaut miles runAvg speedWind from/ knotsBaromVisibWave heightAir tempDewpointWater temp
2018-Aug-16 02:21N 58°09' W 135°20'3 9.1
2018-Aug-16 02:00N 58°09' W 135°26'7 0.6
2018-Aug-15 14:58N 58°14' W 135°35'714.8
2018-Aug-15 14:30N 58°18' W 135°46'714.1
2018-Aug-15 14:00N 58°19' W 135°59'713.3
2018-Aug-15 13:29N 58°19' W 136°13'  
2018-Aug-12 00:15N 58°18' W 136°17'312.2
2018-Aug-12 00:00N 58°19' W 136°11'612.1
2018-Aug-11 23:30N 58°22' W 136°01'510.1
2018-Aug-11 23:00N 58°27' W 135°59'611.3
2018-Aug-11 22:31N 58°32' W 136°04'713.9
2018-Aug-11 22:01N 58°39' W 136°04'714.7
2018-Aug-11 21:30N 58°43' W 136°15'816.6
2018-Aug-11 21:00N 58°48' W 136°27'2 0.3
2018-Aug-11 15:54N 58°48' W 136°24'716.1
2018-Aug-11 15:30N 58°43' W 136°15'815.9
2018-Aug-11 15:00N 58°37' W 136°06'714.4
2018-Aug-11 14:30N 58°30' W 136°03'611.2
2018-Aug-11 14:01N 58°25' W 135°58'4 8.9
2018-Aug-11 13:30N 58°21' W 135°57'510.2
2018-Aug-11 13:00N 58°19' W 135°48'611.7
2018-Aug-11 12:30N 58°16' W 135°38'511.0
2018-Aug-11 12:01N 58°15' W 135°28'  
2018-Aug-08 11:43N 54°56' W 131°06'315.7
2018-Aug-08 11:30N 54°53' W 131°05'714.7
2018-Aug-08 11:00N 54°46' W 131°09'714.4
2018-Aug-08 10:30N 54°40' W 131°14'813.4
2018-Aug-08 09:56N 54°32' W 131°15'614.6
2018-Aug-08 09:30N 54°26' W 131°11'714.8
2018-Aug-08 09:00N 54°19' W 131°07'714.9
2018-Aug-08 08:30N 54°12' W 131°04'714.8
2018-Aug-08 08:00N 54°05' W 131°04'815.1
2018-Aug-08 07:30N 53°57' W 131°04'815.0
2018-Aug-08 07:00N 53°50' W 131°03'815.2
2018-Aug-08 06:30N 53°42' W 131°03'815.3
2018-Aug-08 06:00N 53°34' W 131°03'815.3
2018-Aug-08 05:30N 53°27' W 131°03'815.3
2018-Aug-08 05:01N 53°19' W 130°59'815.3
2018-Aug-08 04:30N 53°12' W 130°54'815.3
2018-Aug-08 04:00N 53°05' W 130°49'815.5
2018-Aug-08 03:30N 52°58' W 130°44'815.4
2018-Aug-08 03:00N 52°51' W 130°39'815.2
2018-Aug-08 02:31N 52°44' W 130°34'815.6
2018-Aug-08 02:00N 52°37' W 130°29'815.7
2018-Aug-08 01:30N 52°30' W 130°24'815.6
2018-Aug-08 01:00N 52°22' W 130°19'815.7
2018-Aug-08 00:30N 52°15' W 130°14'816.0
2018-Aug-08 00:00N 52°08' W 130°09'815.9
2018-Aug-07 23:30N 52°01' W 130°03'816.1
2018-Aug-07 23:01N 51°54' W 129°57'815.4
2018-Aug-07 22:31N 51°47' W 129°51'815.8
2018-Aug-07 22:00N 51°40' W 129°44'815.5
2018-Aug-07 21:31N 51°34' W 129°38'815.7
2018-Aug-07 21:00N 51°27' W 129°31'815.7
2018-Aug-07 20:31N 51°22' W 129°21'815.6
2018-Aug-07 20:00N 51°18' W 129°10'815.4
2018-Aug-07 19:30N 51°14' W 128°59'815.6
2018-Aug-07 19:00N 51°12' W 128°47'815.9
2018-Aug-07 18:31N 51°10' W 128°35'816.1
2018-Aug-07 18:01N 51°08' W 128°23'815.7
2018-Aug-07 17:31N 51°06' W 128°11'816.1
2018-Aug-07 17:00N 51°03' W 127°59'816.2
2018-Aug-07 16:30N 50°59' W 127°48'713.1
2018-Aug-07 16:00N 50°55' W 127°40'816.5
2018-Aug-07 15:30N 50°50' W 127°29'816.4
2018-Aug-07 15:00N 50°47' W 127°17'816.4
2018-Aug-07 14:30N 50°44' W 127°05'816.3
2018-Aug-07 14:00N 50°41' W 126°53'816.5
2018-Aug-07 13:30N 50°36' W 126°43'510.2
2018-Aug-07 12:59N 50°31' W 126°39'611.9
2018-Aug-07 12:30N 50°30' W 126°29'815.7
2018-Aug-07 12:00N 50°30' W 126°17'815.3
2018-Aug-07 11:28N 50°28' W 126°05'2514.1
2018-Aug-07 09:41N 50°20' W 125°27'311.6
2018-Aug-07 09:27N 50°18' W 125°25'716.1
2018-Aug-07 09:00N 50°11' W 125°22'613.1
2018-Aug-07 08:30N 50°05' W 125°17'713.5
2018-Aug-07 08:00N 49°59' W 125°12'713.3
2018-Aug-07 07:30N 49°55' W 125°05'713.2
2018-Aug-07 07:00N 49°50' W 124°57'712.9
2018-Aug-07 06:29N 49°45' W 124°50'612.8
2018-Aug-07 06:00N 49°41' W 124°44'612.9
2018-Aug-07 05:30N 49°36' W 124°38'712.8
2018-Aug-07 04:57N 49°30' W 124°31'612.5
2018-Aug-07 04:28N 49°26' W 124°24'1013.0
2018-Aug-07 03:40N 49°23' W 124°08'312.9
2018-Aug-07 03:27N 49°22' W 124°04'1116.0
2018-Aug-07 02:45N 49°20' W 123°48'516.5
2018-Aug-07 02:28N 49°19' W 123°40'1116.0
2018-Aug-07 01:46N 49°19' W 123°23'415.9
2018-Aug-07 01:30N 49°19' W 123°17'612.7
2018-Aug-07 01:00N 49°18' W 123°07'1 2.1
2018-Aug-07 00:28N 49°17' W 123°07'0 0.0
2018-Aug-06 23:58N 49°17' W 123°07'0 0.0
2018-Aug-06 23:28N 49°17' W 123°07'0 0.0
2018-Aug-06 22:58N 49°17' W 123°07'0 0.0
2018-Aug-06 22:30N 49°17' W 123°07'0 0.0
2018-Aug-06 22:00N 49°17' W 123°07'0 0.0
2018-Aug-06 21:30N 49°17' W 123°07'0 0.0
2018-Aug-06 21:00N 49°17' W 123°07'0 0.0
2018-Aug-06 20:29N 49°17' W 123°07'0 0.0
2018-Aug-06 19:59N 49°17' W 123°07'0 0.0
2018-Aug-06 19:29N 49°17' W 123°07'0 0.0
2018-Aug-06 18:59N 49°17' W 123°07'0 0.0
2018-Aug-06 18:29N 49°17' W 123°07'0 0.0
2018-Aug-06 17:58N 49°17' W 123°07'0 0.0
2018-Aug-06 17:28N 49°17' W 123°07'0 0.0
2018-Aug-06 16:58N 49°17' W 123°07'0 0.0
2018-Aug-06 16:28N 49°17' W 123°07'0 0.0
2018-Aug-06 16:01N 49°17' W 123°07'0 0.0
2018-Aug-06 15:30N 49°17' W 123°07'0 0.0
2018-Aug-06 15:00N 49°17' W 123°07'0 0.0
2018-Aug-06 14:30N 49°17' W 123°07'0 0.0
2018-Aug-06 14:00N 49°17' W 123°07'0 0.0
2018-Aug-06 13:30N 49°17' W 123°07'0 0.9
2018-Aug-06 13:00N 49°18' W 123°06'4 7.7
2018-Aug-06 12:28N 49°19' W 123°12'710.1
2018-Aug-06 11:47N 49°19' W 123°23'310.8
2018-Aug-06 11:30N 49°19' W 123°28'3311.2
2018-Aug-06 08:35N 49°25' W 124°17'111.7
2018-Aug-06 08:29N 49°25' W 124°18'511.6
2018-Aug-06 08:00N 49°28' W 124°26'711.6
2018-Aug-06 07:27N 49°32' W 124°33'612.3
2018-Aug-06 06:59N 49°36' W 124°39'612.3
2018-Aug-06 06:30N 49°41' W 124°45'612.2
2018-Aug-06 06:00N 49°45' W 124°51'611.8
2018-Aug-06 05:30N 49°50' W 124°58'611.4
2018-Aug-06 05:00N 49°54' W 125°04'611.2
2018-Aug-06 04:28N 49°58' W 125°10'511.1
2018-Aug-06 04:00N 50°03' W 125°14'611.5
2018-Aug-06 03:30N 50°07' W 125°20'713.6
2018-Aug-06 03:00N 50°14' W 125°23'  
Track history (hours):
 
Tides and Currents Weather Stations Pressure Air Temp Water Temp Dewpoint Dewpoint Depression Visibility Wind Speed Wind Dir Waves Ship Positions

Norwegian Jewel

Last reported at 2018-Aug-16 02:21 UTC. Time now 2018-Aug-18 00:46 UTC.
Position N 58°09' W 135°20'.

Type: Ship. MMSI: 311827000.

Date/timePositionNaut miles runAvg speedWind from/ knotsBaromVisibWave heightAir tempDewpointWater temp
2018-Aug-16 02:21N 58°09' W 135°20'3 9.1
2018-Aug-16 02:00N 58°09' W 135°26'7 0.6
2018-Aug-15 14:58N 58°14' W 135°35'714.8
2018-Aug-15 14:30N 58°18' W 135°46'714.1
2018-Aug-15 14:00N 58°19' W 135°59'713.3
2018-Aug-15 13:29N 58°19' W 136°13'  
2018-Aug-12 00:15N 58°18' W 136°17'312.2
2018-Aug-12 00:00N 58°19' W 136°11'612.1
2018-Aug-11 23:30N 58°22' W 136°01'510.1
2018-Aug-11 23:00N 58°27' W 135°59'611.3
2018-Aug-11 22:31N 58°32' W 136°04'713.9
2018-Aug-11 22:01N 58°39' W 136°04'714.7
2018-Aug-11 21:30N 58°43' W 136°15'816.6
2018-Aug-11 21:00N 58°48' W 136°27'2 0.3
2018-Aug-11 15:54N 58°48' W 136°24'716.1
2018-Aug-11 15:30N 58°43' W 136°15'815.9
2018-Aug-11 15:00N 58°37' W 136°06'714.4
2018-Aug-11 14:30N 58°30' W 136°03'611.2
2018-Aug-11 14:01N 58°25' W 135°58'4 8.9
2018-Aug-11 13:30N 58°21' W 135°57'510.2
2018-Aug-11 13:00N 58°19' W 135°48'611.7
2018-Aug-11 12:30N 58°16' W 135°38'511.0
2018-Aug-11 12:01N 58°15' W 135°28'  
2018-Aug-08 11:43N 54°56' W 131°06'315.7
2018-Aug-08 11:30N 54°53' W 131°05'714.7
2018-Aug-08 11:00N 54°46' W 131°09'714.4
2018-Aug-08 10:30N 54°40' W 131°14'813.4
2018-Aug-08 09:56N 54°32' W 131°15'614.6
2018-Aug-08 09:30N 54°26' W 131°11'714.8
2018-Aug-08 09:00N 54°19' W 131°07'714.9
2018-Aug-08 08:30N 54°12' W 131°04'714.8
2018-Aug-08 08:00N 54°05' W 131°04'815.1
2018-Aug-08 07:30N 53°57' W 131°04'815.0
2018-Aug-08 07:00N 53°50' W 131°03'815.2
2018-Aug-08 06:30N 53°42' W 131°03'815.3
2018-Aug-08 06:00N 53°34' W 131°03'815.3
2018-Aug-08 05:30N 53°27' W 131°03'815.3
2018-Aug-08 05:01N 53°19' W 130°59'815.3
2018-Aug-08 04:30N 53°12' W 130°54'815.3
2018-Aug-08 04:00N 53°05' W 130°49'815.5
2018-Aug-08 03:30N 52°58' W 130°44'815.4
2018-Aug-08 03:00N 52°51' W 130°39'815.2
2018-Aug-08 02:31N 52°44' W 130°34'815.6
2018-Aug-08 02:00N 52°37' W 130°29'815.7
2018-Aug-08 01:30N 52°30' W 130°24'815.6
2018-Aug-08 01:00N 52°22' W 130°19'815.7
2018-Aug-08 00:30N 52°15' W 130°14'816.0
2018-Aug-08 00:00N 52°08' W 130°09'815.9
2018-Aug-07 23:30N 52°01' W 130°03'816.1
2018-Aug-07 23:01N 51°54' W 129°57'815.4
2018-Aug-07 22:31N 51°47' W 129°51'815.8
2018-Aug-07 22:00N 51°40' W 129°44'815.5
2018-Aug-07 21:31N 51°34' W 129°38'815.7
2018-Aug-07 21:00N 51°27' W 129°31'815.7
2018-Aug-07 20:31N 51°22' W 129°21'815.6
2018-Aug-07 20:00N 51°18' W 129°10'815.4
2018-Aug-07 19:30N 51°14' W 128°59'815.6
2018-Aug-07 19:00N 51°12' W 128°47'815.9
2018-Aug-07 18:31N 51°10' W 128°35'816.1
2018-Aug-07 18:01N 51°08' W 128°23'815.7
2018-Aug-07 17:31N 51°06' W 128°11'816.1
2018-Aug-07 17:00N 51°03' W 127°59'816.2
2018-Aug-07 16:30N 50°59' W 127°48'713.1
2018-Aug-07 16:00N 50°55' W 127°40'816.5
2018-Aug-07 15:30N 50°50' W 127°29'816.4
2018-Aug-07 15:00N 50°47' W 127°17'816.4
2018-Aug-07 14:30N 50°44' W 127°05'816.3
2018-Aug-07 14:00N 50°41' W 126°53'816.5
2018-Aug-07 13:30N 50°36' W 126°43'510.2
2018-Aug-07 12:59N 50°31' W 126°39'611.9
2018-Aug-07 12:30N 50°30' W 126°29'815.7
2018-Aug-07 12:00N 50°30' W 126°17'815.3
2018-Aug-07 11:28N 50°28' W 126°05'2514.1
2018-Aug-07 09:41N 50°20' W 125°27'311.6
2018-Aug-07 09:27N 50°18' W 125°25'716.1
2018-Aug-07 09:00N 50°11' W 125°22'613.1
2018-Aug-07 08:30N 50°05' W 125°17'713.5
2018-Aug-07 08:00N 49°59' W 125°12'713.3
2018-Aug-07 07:30N 49°55' W 125°05'713.2
2018-Aug-07 07:00N 49°50' W 124°57'712.9
2018-Aug-07 06:29N 49°45' W 124°50'612.8
2018-Aug-07 06:00N 49°41' W 124°44'612.9
2018-Aug-07 05:30N 49°36' W 124°38'712.8
2018-Aug-07 04:57N 49°30' W 124°31'612.5
2018-Aug-07 04:28N 49°26' W 124°24'1013.0
2018-Aug-07 03:40N 49°23' W 124°08'312.9
2018-Aug-07 03:27N 49°22' W 124°04'1116.0
2018-Aug-07 02:45N 49°20' W 123°48'516.5
2018-Aug-07 02:28N 49°19' W 123°40'1116.0
2018-Aug-07 01:46N 49°19' W 123°23'415.9
2018-Aug-07 01:30N 49°19' W 123°17'612.7
2018-Aug-07 01:00N 49°18' W 123°07'1 2.1
2018-Aug-07 00:28N 49°17' W 123°07'0 0.0
2018-Aug-06 23:58N 49°17' W 123°07'0 0.0
2018-Aug-06 23:28N 49°17' W 123°07'0 0.0
2018-Aug-06 22:58N 49°17' W 123°07'0 0.0
2018-Aug-06 22:30N 49°17' W 123°07'0 0.0
2018-Aug-06 22:00N 49°17' W 123°07'0 0.0
2018-Aug-06 21:30N 49°17' W 123°07'0 0.0
2018-Aug-06 21:00N 49°17' W 123°07'0 0.0
2018-Aug-06 20:29N 49°17' W 123°07'0 0.0
2018-Aug-06 19:59N 49°17' W 123°07'0 0.0
2018-Aug-06 19:29N 49°17' W 123°07'0 0.0
2018-Aug-06 18:59N 49°17' W 123°07'0 0.0
2018-Aug-06 18:29N 49°17' W 123°07'0 0.0
2018-Aug-06 17:58N 49°17' W 123°07'0 0.0
2018-Aug-06 17:28N 49°17' W 123°07'0 0.0
2018-Aug-06 16:58N 49°17' W 123°07'0 0.0
2018-Aug-06 16:28N 49°17' W 123°07'0 0.0
2018-Aug-06 16:01N 49°17' W 123°07'0 0.0
2018-Aug-06 15:30N 49°17' W 123°07'0 0.0
2018-Aug-06 15:00N 49°17' W 123°07'0 0.0
2018-Aug-06 14:30N 49°17' W 123°07'0 0.0
2018-Aug-06 14:00N 49°17' W 123°07'0 0.0
2018-Aug-06 13:30N 49°17' W 123°07'0 0.9
2018-Aug-06 13:00N 49°18' W 123°06'4 7.7
2018-Aug-06 12:28N 49°19' W 123°12'710.1
2018-Aug-06 11:47N 49°19' W 123°23'310.8
2018-Aug-06 11:30N 49°19' W 123°28'3311.2
2018-Aug-06 08:35N 49°25' W 124°17'111.7
2018-Aug-06 08:29N 49°25' W 124°18'511.6
2018-Aug-06 08:00N 49°28' W 124°26'711.6
2018-Aug-06 07:27N 49°32' W 124°33'612.3
2018-Aug-06 06:59N 49°36' W 124°39'612.3
2018-Aug-06 06:30N 49°41' W 124°45'612.2
2018-Aug-06 06:00N 49°45' W 124°51'611.8
2018-Aug-06 05:30N 49°50' W 124°58'611.4
2018-Aug-06 05:00N 49°54' W 125°04'611.2
2018-Aug-06 04:28N 49°58' W 125°10'511.1
2018-Aug-06 04:00N 50°03' W 125°14'611.5
2018-Aug-06 03:30N 50°07' W 125°20'713.6
2018-Aug-06 03:00N 50°14' W 125°23'  

Dump ship's entire track history